createdAt,value
2018-12-30T00:19:42.773Z,5.09
2018-12-30T00:39:54.223Z,6.43
2018-12-30T00:59:58.324Z,12.08
2018-12-30T01:19:57.823Z,10.98
2018-12-30T01:40:09.601Z,8.69
2018-12-30T02:00:09.140Z,7.11
2018-12-30T02:20:18.728Z,9.28
2018-12-30T02:40:28.264Z,10.81
2018-12-30T03:00:37.844Z,6.26
2018-12-30T03:20:47.362Z,5.89
2018-12-30T03:40:59.204Z,4.71
2018-12-30T04:00:58.683Z,5.65
2018-12-30T04:21:08.175Z,8.21
2018-12-30T04:41:17.659Z,7.84
2018-12-30T05:01:27.276Z,7.92
2018-12-30T05:21:36.817Z,8.46
2018-12-30T05:41:46.339Z,9.54
2018-12-30T06:01:55.829Z,9.95
2018-12-30T06:22:05.133Z,9.62
2018-12-30T06:42:14.820Z,11.20
2018-12-30T07:02:26.622Z,11.47
2018-12-30T07:22:26.220Z,11.50
2018-12-30T07:42:35.693Z,12.28
2018-12-30T08:02:45.166Z,10.91
2018-12-30T08:22:54.713Z,9.19
2018-12-30T08:43:06.568Z,8.28
2018-12-30T09:03:06.002Z,9.99
2018-12-30T09:23:15.349Z,9.71
2018-12-30T09:43:25.054Z,10.95
2018-12-30T10:03:36.736Z,11.25
2018-12-30T10:23:36.544Z,12.82
2018-12-30T10:43:46.143Z,10.90
2018-12-30T11:03:58.017Z,13.58
2018-12-30T11:24:00.510Z,13.20
2018-12-30T11:44:00.096Z,12.62
2018-12-30T12:04:09.657Z,17.71
2018-12-30T12:24:24.285Z,15.37
2018-12-30T12:44:28.045Z,19.34
2018-12-30T13:04:37.594Z,15.36
2018-12-30T13:24:47.096Z,17.84
2018-12-30T13:44:56.661Z,17.68
2018-12-30T14:05:08.381Z,17.64
2018-12-30T14:25:07.884Z,15.97
2018-12-30T14:45:19.749Z,26.45
2018-12-30T15:05:19.353Z,15.18
2018-12-30T15:25:34.094Z,17.47
2018-12-30T15:45:33.602Z,17.51
2018-12-30T16:05:43.198Z,14.72
2018-12-30T16:25:52.792Z,18.33
2018-12-30T16:46:02.268Z,14.67
2018-12-30T17:06:16.379Z,22.13
2018-12-30T17:26:20.635Z,20.63
2018-12-30T17:46:27.686Z,25.65
2018-12-30T18:06:27.132Z,25.87
2018-12-30T18:26:44.310Z,26.86
2018-12-30T18:46:44.011Z,36.62
2018-12-30T19:06:58.546Z,22.98
2018-12-30T19:27:02.856Z,24.08
2018-12-30T19:47:03.374Z,22.35
2018-12-30T20:07:02.852Z,23.30
2018-12-30T20:27:13.788Z,26.62
2018-12-30T20:47:13.308Z,29.28
2018-12-30T21:07:27.561Z,42.30
2018-12-30T21:27:27.101Z,29.88
2018-12-30T21:47:41.165Z,39.73
2018-12-30T22:07:40.493Z,39.41
2018-12-30T22:27:53.971Z,39.20
2018-12-30T22:47:53.486Z,46.55
2018-12-30T23:08:03.129Z,38.58
2018-12-30T23:28:12.671Z,46.02
2018-12-30T23:48:22.270Z,37.18
